Time;durP1;ratioP1;P1;durP2;ratioP2;P2;SDS_P1;SDS_P2;PMS_P1;PMS_P2;Temp;Humidity;BMP_temperature;BMP_pressure;BME280_temperature;BME280_humidity;BME280_pressure;Samples;Min_cycle;Max_cycle;Signal;HPM_P1;HPM_P2
2022/10/12 00:00:13;;;;;;;24.20;13.73;;;;;;;;;;5073332;28;20221;-66
2022/10/12 00:02:41;;;;;;;20.80;15.20;;;;;;;;;;5072894;28;20660;-67
2022/10/12 00:05:08;;;;;;;19.60;13.63;;;;;;;;;;5073711;28;20196;-67
2022/10/12 00:07:37;;;;;;;18.55;13.30;;;;;;;;;;5072818;28;20195;-67
2022/10/12 00:10:05;;;;;;;27.40;14.95;;;;;;;;;;5073347;28;20226;-67
2022/10/12 00:12:32;;;;;;;26.88;15.80;;;;;;;;;;5073103;28;20203;-67
2022/10/12 00:14:59;;;;;;;25.83;14.80;;;;;;;;;;5072888;28;20205;-67
2022/10/12 00:17:26;;;;;;;21.02;15.25;;;;;;;;;;5072802;28;20196;-67
2022/10/12 00:19:53;;;;;;;25.02;14.57;;;;;;;;;;5072828;28;20195;-67
2022/10/12 00:22:20;;;;;;;20.63;12.77;;;;;;;;;;5073097;28;20665;-67
2022/10/12 00:24:49;;;;;;;27.73;14.55;;;;;;;;;;5072858;28;20223;-67
2022/10/12 00:27:16;;;;;;;16.38;13.60;;;;;;;;;;5072996;28;20196;-67
2022/10/12 00:29:43;;;;;;;28.58;14.70;;;;;;;;;;5072965;28;20215;-67
2022/10/12 00:32:10;;;;;;;20.85;13.15;;;;;;;;;;5072903;28;20202;-67
2022/10/12 00:34:38;;;;;;;20.08;12.32;;;;;;;;;;5073340;28;20196;-68
2022/10/12 00:37:05;;;;;;;21.90;13.40;;;;;;;;;;5072924;28;20193;-67
2022/10/12 00:39:32;;;;;;;26.10;13.73;;;;;;;;;;5072951;28;20198;-67
2022/10/12 00:42:01;;;;;;;20.10;11.90;;;;;;;;;;5072879;28;20203;-67
2022/10/12 00:44:35;;;;;;;19.05;13.05;;;;;;;;;;5072939;28;20195;-67
2022/10/12 00:47:03;;;;;;;17.33;12.85;;;;;;;;;;5074431;28;20196;-67
2022/10/12 00:49:31;;;;;;;17.73;11.95;;;;;;;;;;5076992;28;20195;-67
2022/10/12 00:52:01;;;;;;;18.05;12.75;;;;;;;;;;5076529;28;20287;-67
2022/10/12 00:54:31;;;;;;;26.23;12.82;;;;;;;;;;5076567;28;20188;-67
2022/10/12 00:56:59;;;;;;;18.92;13.43;;;;;;;;;;5076630;28;20249;-67
2022/10/12 00:59:29;;;;;;;22.17;12.38;;;;;;;;;;5076104;28;20646;-67
2022/10/12 01:01:56;;;;;;;23.90;12.93;;;;;;;;;;5076186;28;20683;-67
2022/10/12 01:04:24;;;;;;;16.52;11.20;;;;;;;;;;5076055;28;20199;-66
2022/10/12 01:06:51;;;;;;;23.50;13.10;;;;;;;;;;5076787;28;20564;-67
2022/10/12 01:09:19;;;;;;;14.52;11.30;;;;;;;;;;5076262;28;20197;-67
2022/10/12 01:11:46;;;;;;;26.15;12.00;;;;;;;;;;5075800;28;20219;-67
2022/10/12 01:14:13;;;;;;;15.93;11.30;;;;;;;;;;5076239;28;20645;-67
2022/10/12 01:16:46;;;;;;;19.38;11.02;;;;;;;;;;5076481;28;20198;-67
2022/10/12 01:19:23;;;;;;;15.23;9.73;;;;;;;;;;5076175;28;20633;-67
2022/10/12 01:21:53;;;;;;;29.00;12.07;;;;;;;;;;5076077;28;20195;-68
2022/10/12 01:24:29;;;;;;;23.20;12.07;;;;;;;;;;5075772;28;20230;-67
2022/10/12 01:27:15;;;;;;;18.80;11.15;;;;;;;;;;5075963;28;20568;-68
2022/10/12 01:30:01;;;;;;;23.10;11.07;;;;;;;;;;5075923;28;20652;-66
2022/10/12 01:32:31;;;;;;;21.75;11.90;;;;;;;;;;5075529;28;20227;-67
2022/10/12 01:35:02;;;;;;;19.00;12.23;;;;;;;;;;5075576;28;20191;-67
2022/10/12 01:37:32;;;;;;;15.93;11.10;;;;;;;;;;5075794;28;20206;-67
2022/10/12 01:40:01;;;;;;;22.40;10.68;;;;;;;;;;5075479;28;20199;-67
2022/10/12 01:42:30;;;;;;;16.17;11.25;;;;;;;;;;5075271;28;20203;-67
2022/10/12 01:45:04;;;;;;;21.73;10.07;;;;;;;;;;5075456;28;20206;-67
2022/10/12 01:47:33;;;;;;;14.43;10.35;;;;;;;;;;5075964;28;20195;-67
2022/10/12 01:50:01;;;;;;;18.38;9.63;;;;;;;;;;5075430;28;20223;-67
2022/10/12 01:52:29;;;;;;;15.20;10.88;;;;;;;;;;5076069;28;20542;-67
2022/10/12 01:55:15;;;;;;;12.13;9.27;;;;;;;;;;5075511;28;20203;-67
2022/10/12 01:57:51;;;;;;;16.17;9.55;;;;;;;;;;5075141;28;20198;-67
2022/10/12 02:00:19;;;;;;;18.48;10.43;;;;;;;;;;5074740;28;20653;-67
2022/10/12 02:02:52;;;;;;;13.13;9.52;;;;;;;;;;5075604;28;20195;-67
2022/10/12 02:05:23;;;;;;;18.58;9.98;;;;;;;;;;5075347;28;20275;-67
2022/10/12 02:07:52;;;;;;;15.63;8.90;;;;;;;;;;5075460;28;20184;-67
2022/10/12 02:10:22;;;;;;;17.30;10.63;;;;;;;;;;5074752;28;20226;-67
2022/10/12 02:12:50;;;;;;;11.82;8.88;;;;;;;;;;5075078;28;20262;-67
2022/10/12 02:15:18;;;;;;;16.10;10.10;;;;;;;;;;5075361;28;20193;-67
2022/10/12 02:17:47;;;;;;;20.42;9.90;;;;;;;;;;5074688;28;20195;-67
2022/10/12 02:20:17;;;;;;;14.75;10.65;;;;;;;;;;5074816;28;20655;-67
2022/10/12 02:22:47;;;;;;;22.70;9.30;;;;;;;;;;5074926;28;20195;-67
2022/10/12 02:25:15;;;;;;;17.70;9.98;;;;;;;;;;5074423;28;20229;-67
2022/10/12 02:27:44;;;;;;;21.15;10.23;;;;;;;;;;5074619;28;20216;-67
2022/10/12 02:30:12;;;;;;;12.30;8.98;;;;;;;;;;5074646;28;20200;-66
2022/10/12 02:32:41;;;;;;;15.68;10.15;;;;;;;;;;5074414;28;20193;-66
2022/10/12 02:35:10;;;;;;;15.77;10.57;;;;;;;;;;5074479;28;20202;-66
2022/10/12 02:37:40;;;;;;;16.92;11.48;;;;;;;;;;5074642;28;20198;-67
2022/10/12 02:40:11;;;;;;;15.07;9.88;;;;;;;;;;5074635;28;20189;-67
2022/10/12 02:42:40;;;;;;;19.05;9.57;;;;;;;;;;5074949;28;20237;-66
2022/10/12 02:45:09;;;;;;;16.63;10.95;;;;;;;;;;5074305;28;20193;-67
2022/10/12 02:47:37;;;;;;;17.63;9.68;;;;;;;;;;5074011;28;20196;-66
2022/10/12 02:50:05;;;;;;;17.95;10.85;;;;;;;;;;5074377;28;20197;-67
2022/10/12 02:52:33;;;;;;;19.92;11.02;;;;;;;;;;5074859;28;20196;-67
2022/10/12 02:55:02;;;;;;;13.73;9.95;;;;;;;;;;5073709;28;20654;-67
2022/10/12 02:57:29;;;;;;;18.40;10.60;;;;;;;;;;5074042;28;20200;-67
2022/10/12 02:59:56;;;;;;;17.35;10.45;;;;;;;;;;5074000;28;20206;-66
2022/10/12 03:02:23;;;;;;;18.77;10.20;;;;;;;;;;5074216;28;20199;-67
2022/10/12 03:04:50;;;;;;;22.17;10.43;;;;;;;;;;5073872;28;20193;-67
2022/10/12 03:07:18;;;;;;;23.45;10.20;;;;;;;;;;5073590;28;20287;-67
2022/10/12 03:09:45;;;;;;;16.77;10.13;;;;;;;;;;5073900;28;20197;-67
2022/10/12 03:12:13;;;;;;;16.58;10.52;;;;;;;;;;5073806;28;20220;-67
2022/10/12 03:14:40;;;;;;;14.75;9.90;;;;;;;;;;5073908;28;20382;-67
2022/10/12 03:17:08;;;;;;;12.50;10.45;;;;;;;;;;5073829;28;20191;-66
2022/10/12 03:19:37;;;;;;;15.80;9.65;;;;;;;;;;5073839;28;20196;-66
2022/10/12 03:22:04;;;;;;;16.15;10.77;;;;;;;;;;5073431;28;20684;-67
2022/10/12 03:24:31;;;;;;;14.20;10.73;;;;;;;;;;5073956;28;20552;-67
2022/10/12 03:26:58;;;;;;;12.18;10.00;;;;;;;;;;5073732;28;20569;-67
2022/10/12 03:29:27;;;;;;;14.20;9.23;;;;;;;;;;5073494;28;20201;-66
2022/10/12 03:31:54;;;;;;;13.32;9.68;;;;;;;;;;5073515;28;20221;-67
2022/10/12 03:34:21;;;;;;;16.77;10.98;;;;;;;;;;5073498;28;20190;-67
2022/10/12 03:36:48;;;;;;;21.65;10.13;;;;;;;;;;5073607;28;20282;-67
2022/10/12 03:39:16;;;;;;;13.25;10.07;;;;;;;;;;5073175;28;20738;-66
2022/10/12 03:41:43;;;;;;;15.82;9.00;;;;;;;;;;5073595;28;20228;-66
2022/10/12 03:44:10;;;;;;;16.50;10.20;;;;;;;;;;5073447;28;20202;-67
2022/10/12 03:46:39;;;;;;;11.38;9.35;;;;;;;;;;5074038;28;20191;-67
2022/10/12 03:49:06;;;;;;;11.70;9.63;;;;;;;;;;5073374;28;20198;-67
2022/10/12 03:51:33;;;;;;;14.85;9.30;;;;;;;;;;5073390;28;20223;-66
2022/10/12 03:54:00;;;;;;;14.50;10.85;;;;;;;;;;5073313;28;20195;-67
2022/10/12 03:56:27;;;;;;;11.75;10.38;;;;;;;;;;5073848;28;20198;-67
2022/10/12 03:58:54;;;;;;;12.43;9.77;;;;;;;;;;5073288;28;20200;-68
2022/10/12 04:01:22;;;;;;;16.67;10.57;;;;;;;;;;5072279;28;20201;-68
2022/10/12 04:03:50;;;;;;;22.20;10.40;;;;;;;;;;5073220;28;20201;-67
2022/10/12 04:06:18;;;;;;;15.63;10.85;;;;;;;;;;5073129;28;20564;-68
2022/10/12 04:08:45;;;;;;;13.50;10.95;;;;;;;;;;5073271;28;20584;-67
2022/10/12 04:11:12;;;;;;;15.10;9.65;;;;;;;;;;5072968;28;20303;-68
2022/10/12 04:13:39;;;;;;;17.10;10.68;;;;;;;;;;5073588;28;20197;-67
2022/10/12 04:16:07;;;;;;;18.77;10.90;;;;;;;;;;5073007;28;20193;-68
2022/10/12 04:18:35;;;;;;;20.40;11.35;;;;;;;;;;5073748;28;20561;-67
2022/10/12 04:21:06;;;;;;;17.40;10.50;;;;;;;;;;5072564;28;20220;-68
2022/10/12 04:23:34;;;;;;;14.45;10.95;;;;;;;;;;5077449;28;20194;-67
2022/10/12 04:26:01;;;;;;;15.27;10.80;;;;;;;;;;5076563;28;20202;-68
2022/10/12 04:28:28;;;;;;;18.65;10.65;;;;;;;;;;5076931;28;20202;-68
2022/10/12 04:30:55;;;;;;;13.10;9.88;;;;;;;;;;5076579;28;20198;-68
2022/10/12 04:33:22;;;;;;;13.00;10.00;;;;;;;;;;5077146;28;20201;-68
2022/10/12 04:35:49;;;;;;;17.40;10.15;;;;;;;;;;5076959;28;20197;-68
2022/10/12 04:38:18;;;;;;;13.07;10.45;;;;;;;;;;5076453;28;20285;-67
2022/10/12 04:40:46;;;;;;;20.27;10.40;;;;;;;;;;5077040;28;20561;-68
2022/10/12 04:43:14;;;;;;;13.82;11.05;;;;;;;;;;5076340;28;20195;-68
2022/10/12 04:45:41;;;;;;;18.83;10.70;;;;;;;;;;5076441;28;20201;-68
2022/10/12 04:48:08;;;;;;;18.50;11.55;;;;;;;;;;5076649;28;20201;-67
2022/10/12 04:50:36;;;;;;;16.85;10.75;;;;;;;;;;5076243;28;20206;-67
2022/10/12 04:53:03;;;;;;;14.38;10.40;;;;;;;;;;5076702;28;20244;-68
2022/10/12 04:55:31;;;;;;;13.13;10.70;;;;;;;;;;5076212;28;20279;-68
2022/10/12 04:57:59;;;;;;;21.10;11.32;;;;;;;;;;5075950;28;20729;-68
2022/10/12 05:00:26;;;;;;;16.35;10.93;;;;;;;;;;5076104;28;20198;-68
2022/10/12 05:02:53;;;;;;;15.93;11.02;;;;;;;;;;5076212;28;20202;-68
2022/10/12 05:05:21;;;;;;;15.23;10.45;;;;;;;;;;5075975;28;20207;-68
2022/10/12 05:07:48;;;;;;;15.93;11.45;;;;;;;;;;5076043;28;20191;-67
2022/10/12 05:10:15;;;;;;;24.08;12.57;;;;;;;;;;5075963;28;20198;-69
2022/10/12 05:12:43;;;;;;;15.95;11.10;;;;;;;;;;5075681;28;20216;-68
2022/10/12 05:15:11;;;;;;;16.33;10.20;;;;;;;;;;5076126;28;20194;-68
2022/10/12 05:17:38;;;;;;;18.95;10.98;;;;;;;;;;5076335;28;20341;-68
2022/10/12 05:20:06;;;;;;;13.13;11.63;;;;;;;;;;5075716;28;20200;-68
2022/10/12 05:22:33;;;;;;;12.63;9.75;;;;;;;;;;5075901;28;20199;-68
2022/10/12 05:25:00;;;;;;;18.73;12.07;;;;;;;;;;5075324;28;20224;-67
2022/10/12 05:27:27;;;;;;;16.30;11.70;;;;;;;;;;5075669;28;20195;-68
2022/10/12 05:29:56;;;;;;;18.10;11.85;;;;;;;;;;5075450;28;20393;-68
2022/10/12 05:32:23;;;;;;;14.30;11.63;;;;;;;;;;5075208;28;20269;-67
2022/10/12 05:34:50;;;;;;;17.33;11.27;;;;;;;;;;5073935;28;20201;-67
2022/10/12 05:37:17;;;;;;;18.13;12.00;;;;;;;;;;5075441;28;20668;-67
2022/10/12 05:39:45;;;;;;;17.17;12.15;;;;;;;;;;5075219;28;20196;-67
2022/10/12 05:42:12;;;;;;;14.80;10.05;;;;;;;;;;5075013;28;20202;-67
2022/10/12 05:44:39;;;;;;;14.15;11.77;;;;;;;;;;5075494;28;20547;-67
2022/10/12 05:47:08;;;;;;;16.02;12.02;;;;;;;;;;5075263;28;20672;-67
2022/10/12 05:49:35;;;;;;;15.50;10.95;;;;;;;;;;5075413;28;20290;-67
2022/10/12 05:52:03;;;;;;;15.60;12.38;;;;;;;;;;5075535;28;20228;-67
2022/10/12 05:54:30;;;;;;;37.33;28.42;;;;;;;;;;5075830;28;20204;-67
2022/10/12 05:56:57;;;;;;;23.80;17.15;;;;;;;;;;5075163;28;20200;-67
2022/10/12 05:59:24;;;;;;;19.38;12.93;;;;;;;;;;5075195;28;20572;-67
2022/10/12 06:01:52;;;;;;;19.02;14.05;;;;;;;;;;5075172;28;20206;-67
2022/10/12 06:04:20;;;;;;;23.58;12.43;;;;;;;;;;5074784;28;20204;-68
2022/10/12 06:06:47;;;;;;;22.40;12.90;;;;;;;;;;5075032;28;20201;-67
2022/10/12 06:09:15;;;;;;;20.95;12.50;;;;;;;;;;5074960;28;20208;-67
2022/10/12 06:11:42;;;;;;;15.10;11.82;;;;;;;;;;5074490;28;20225;-67
2022/10/12 06:14:09;;;;;;;18.00;13.38;;;;;;;;;;5074890;28;20282;-67
2022/10/12 06:16:36;;;;;;;21.67;12.70;;;;;;;;;;5074866;28;20198;-68
2022/10/12 06:19:03;;;;;;;18.35;14.30;;;;;;;;;;5074792;28;20203;-67
2022/10/12 06:21:32;;;;;;;16.08;12.50;;;;;;;;;;5074366;28;20198;-67
2022/10/12 06:23:59;;;;;;;19.65;13.23;;;;;;;;;;5074353;28;20231;-68
2022/10/12 06:26:26;;;;;;;16.27;12.45;;;;;;;;;;5074250;28;20192;-68
2022/10/12 06:28:53;;;;;;;17.40;11.70;;;;;;;;;;5074681;28;20198;-67
2022/10/12 06:31:20;;;;;;;18.85;13.00;;;;;;;;;;5074492;28;20195;-67
2022/10/12 06:33:49;;;;;;;23.25;16.38;;;;;;;;;;5074245;28;20196;-67
2022/10/12 06:36:17;;;;;;;21.58;15.82;;;;;;;;;;5073879;28;20595;-68
2022/10/12 06:38:45;;;;;;;18.83;14.45;;;;;;;;;;5074331;28;20201;-67
2022/10/12 06:41:12;;;;;;;17.05;12.02;;;;;;;;;;5074101;28;20204;-68
2022/10/12 06:43:40;;;;;;;17.58;13.30;;;;;;;;;;5074541;28;20204;-68
2022/10/12 06:46:07;;;;;;;15.05;11.90;;;;;;;;;;5073598;28;20195;-67
2022/10/12 06:48:34;;;;;;;26.58;13.38;;;;;;;;;;5074096;28;20201;-68
2022/10/12 06:51:01;;;;;;;19.80;12.35;;;;;;;;;;5074307;28;20204;-67
2022/10/12 06:53:31;;;;;;;71.68;18.52;;;;;;;;;;5073808;28;20227;-68
2022/10/12 06:56:00;;;;;;;78.75;23.30;;;;;;;;;;5074282;28;20196;-68
2022/10/12 06:58:27;;;;;;;55.22;17.83;;;;;;;;;;5073881;28;20569;-67
2022/10/12 07:00:54;;;;;;;36.10;14.05;;;;;;;;;;5073670;28;20194;-67
2022/10/12 07:03:21;;;;;;;66.13;19.60;;;;;;;;;;5073669;28;20657;-67
2022/10/12 07:05:48;;;;;;;27.00;12.20;;;;;;;;;;5074191;28;20558;-67
2022/10/12 07:08:16;;;;;;;46.20;14.93;;;;;;;;;;5073823;28;20561;-67
2022/10/12 07:10:43;;;;;;;75.80;20.65;;;;;;;;;;5073658;28;20203;-67
2022/10/12 07:13:12;;;;;;;30.73;14.85;;;;;;;;;;5073258;28;20679;-67
2022/10/12 07:15:39;;;;;;;51.92;13.13;;;;;;;;;;5073354;28;20194;-67
2022/10/12 07:18:06;;;;;;;47.80;14.82;;;;;;;;;;5072773;28;20196;-68
2022/10/12 07:20:34;;;;;;;18.17;11.00;;;;;;;;;;5073264;28;20258;-67
2022/10/12 07:23:01;;;;;;;27.13;12.52;;;;;;;;;;5073207;28;20209;-67
2022/10/12 07:25:28;;;;;;;81.45;20.52;;;;;;;;;;5072818;28;20236;-68
2022/10/12 07:27:55;;;;;;;27.02;11.80;;;;;;;;;;5073367;28;20197;-67
2022/10/12 07:30:24;;;;;;;21.38;13.27;;;;;;;;;;5073611;28;20194;-67
2022/10/12 07:32:51;;;;;;;13.52;10.65;;;;;;;;;;5073007;28;20220;-67
2022/10/12 07:35:18;;;;;;;19.25;10.43;;;;;;;;;;5073448;28;20551;-68
2022/10/12 07:37:45;;;;;;;20.13;12.20;;;;;;;;;;5073559;28;20669;-67
2022/10/12 07:40:12;;;;;;;16.85;11.55;;;;;;;;;;5073962;28;20193;-67
2022/10/12 07:42:40;;;;;;;14.95;11.02;;;;;;;;;;5073373;28;20204;-67
2022/10/12 07:45:08;;;;;;;14.15;10.40;;;;;;;;;;5073139;28;20253;-67
2022/10/12 07:47:36;;;;;;;16.70;10.90;;;;;;;;;;5073832;28;20196;-68
2022/10/12 07:50:03;;;;;;;18.90;10.32;;;;;;;;;;5073446;28;20199;-67
2022/10/12 07:52:31;;;;;;;17.05;10.35;;;;;;;;;;5073732;28;20223;-67
2022/10/12 07:54:58;;;;;;;17.67;11.40;;;;;;;;;;5072946;28;20203;-67
2022/10/12 07:57:25;;;;;;;19.60;13.02;;;;;;;;;;5072508;28;20197;-68
2022/10/12 07:59:53;;;;;;;13.48;11.02;;;;;;;;;;5073070;28;20191;-67
2022/10/12 08:02:20;;;;;;;17.75;10.27;;;;;;;;;;5073348;28;20201;-68
2022/10/12 08:04:49;;;;;;;16.60;11.55;;;;;;;;;;5073368;28;20197;-67
2022/10/12 08:07:16;;;;;;;16.55;11.25;;;;;;;;;;5073772;28;20558;-68
2022/10/12 08:09:43;;;;;;;17.33;13.50;;;;;;;;;;5073277;28;20202;-67
2022/10/12 08:12:11;;;;;;;22.45;12.48;;;;;;;;;;5073164;28;20557;-67
2022/10/12 08:14:38;;;;;;;80.68;19.90;;;;;;;;;;5072726;28;20192;-66
2022/10/12 08:17:05;;;;;;;120.90;26.58;;;;;;;;;;5073906;28;20196;-68
2022/10/12 08:19:32;;;;;;;101.80;21.30;;;;;;;;;;5073011;28;20200;-67
2022/10/12 08:22:01;;;;;;;40.03;17.63;;;;;;;;;;5073061;28;20199;-67
2022/10/12 08:24:28;;;;;;;28.20;13.85;;;;;;;;;;5072989;28;20243;-67
2022/10/12 08:26:55;;;;;;;15.25;10.88;;;;;;;;;;5073059;28;20215;-67
2022/10/12 08:29:22;;;;;;;28.30;10.80;;;;;;;;;;5073228;28;20202;-67
2022/10/12 08:31:50;;;;;;;28.38;10.23;;;;;;;;;;5073600;28;20203;-67
2022/10/12 08:34:17;;;;;;;14.57;10.95;;;;;;;;;;5072162;28;20714;-67
2022/10/12 08:36:44;;;;;;;19.02;11.05;;;;;;;;;;5072786;28;20198;-67
2022/10/12 08:39:13;;;;;;;19.88;11.45;;;;;;;;;;5072631;28;20293;-66
2022/10/12 08:41:44;;;;;;;14.05;9.63;;;;;;;;;;5072561;28;20725;-68
2022/10/12 08:44:36;;;;;;;22.77;14.05;;;;;;;;;;5072628;28;20646;-67
2022/10/12 08:47:04;;;;;;;132.82;23.00;;;;;;;;;;5072649;28;20181;-67
2022/10/12 08:49:32;;;;;;;71.90;19.13;;;;;;;;;;5072685;28;20654;-67
2022/10/12 08:52:03;;;;;;;74.47;17.52;;;;;;;;;;5072788;28;20208;-67
2022/10/12 08:54:33;;;;;;;89.88;19.70;;;;;;;;;;5072787;28;20213;-67
2022/10/12 08:57:00;;;;;;;50.47;16.20;;;;;;;;;;5072453;28;20682;-67
2022/10/12 08:59:29;;;;;;;32.15;11.68;;;;;;;;;;5072712;28;20198;-68
2022/10/12 09:02:02;;;;;;;22.83;10.38;;;;;;;;;;5072459;28;20194;-67
2022/10/12 09:04:43;;;;;;;27.05;10.40;;;;;;;;;;5073098;28;20186;-67
2022/10/12 09:07:12;;;;;;;11.23;7.43;;;;;;;;;;5072447;28;20200;-67
2022/10/12 09:09:46;;;;;;;18.83;8.25;;;;;;;;;;5076088;28;20200;-66
2022/10/12 09:12:26;;;;;;;123.15;20.10;;;;;;;;;;5075889;28;20186;-67
2022/10/12 09:14:57;;;;;;;113.88;19.15;;;;;;;;;;5076296;28;20182;-67
2022/10/12 09:17:26;;;;;;;23.02;10.00;;;;;;;;;;5075858;28;20189;-67
2022/10/12 09:19:59;;;;;;;14.52;7.32;;;;;;;;;;5075674;28;20734;-67
2022/10/12 09:22:27;;;;;;;19.92;8.43;;;;;;;;;;5076061;28;20182;-67
2022/10/12 09:24:58;;;;;;;12.73;7.47;;;;;;;;;;5075595;28;20233;-67
2022/10/12 09:27:28;;;;;;;14.65;6.22;;;;;;;;;;5075936;28;20225;-67
2022/10/12 09:29:56;;;;;;;54.07;11.87;;;;;;;;;;5075388;28;20652;-67
2022/10/12 09:32:30;;;;;;;35.30;12.25;;;;;;;;;;5076059;28;20929;-66
2022/10/12 09:34:58;;;;;;;56.65;14.32;;;;;;;;;;5075360;28;20639;-67
2022/10/12 09:37:27;;;;;;;43.85;13.35;;;;;;;;;;5075330;28;20198;-67
2022/10/12 09:39:55;;;;;;;26.48;9.02;;;;;;;;;;5075522;28;20208;-67
2022/10/12 09:42:23;;;;;;;17.30;6.68;;;;;;;;;;5075694;28;20220;-66
2022/10/12 09:44:50;;;;;;;8.27;5.87;;;;;;;;;;5075872;28;20191;-67
2022/10/12 09:47:26;;;;;;;13.57;6.35;;;;;;;;;;5075525;28;20940;-67
2022/10/12 09:49:57;;;;;;;11.20;6.20;;;;;;;;;;5075110;28;20194;-68
2022/10/12 09:52:25;;;;;;;19.90;6.60;;;;;;;;;;5076096;28;20441;-67
2022/10/12 09:54:53;;;;;;;16.00;6.07;;;;;;;;;;5075350;28;20449;-67
2022/10/12 09:57:23;;;;;;;13.70;5.53;;;;;;;;;;5075453;28;20441;-67
2022/10/12 09:59:51;;;;;;;10.17;5.87;;;;;;;;;;5075572;28;20440;-68
2022/10/12 10:02:19;;;;;;;9.70;5.40;;;;;;;;;;5075711;28;20444;-67
2022/10/12 10:04:47;;;;;;;8.20;5.30;;;;;;;;;;5074776;28;20447;-67
2022/10/12 10:07:23;;;;;;;14.00;5.40;;;;;;;;;;5075647;28;20759;-67
2022/10/12 10:10:06;;;;;;;15.13;5.03;;;;;;;;;;5075424;28;20530;-68
2022/10/12 10:12:37;;;;;;;11.83;4.73;;;;;;;;;;5075240;28;20426;-67
2022/10/12 10:15:04;;;;;;;68.40;11.90;;;;;;;;;;5075161;28;20440;-67
2022/10/12 10:17:33;;;;;;;16.00;4.70;;;;;;;;;;5074941;28;20440;-67
2022/10/12 10:20:02;;;;;;;13.60;4.67;;;;;;;;;;5074501;28;20433;-68
2022/10/12 10:22:30;;;;;;;14.80;5.33;;;;;;;;;;5074584;28;20445;-69
2022/10/12 10:24:58;;;;;;;13.07;4.60;;;;;;;;;;5074630;28;20479;-69
2022/10/12 10:27:28;;;;;;;9.93;4.60;;;;;;;;;;5074753;28;20445;-67
2022/10/12 10:30:08;;;;;;;8.60;5.00;;;;;;;;;;5074749;28;20512;-67
2022/10/12 10:32:35;;;;;;;18.90;7.47;;;;;;;;;;5074919;28;20478;-67
2022/10/12 10:35:03;;;;;;;13.83;5.90;;;;;;;;;;5074404;28;20487;-69
2022/10/12 10:37:32;;;;;;;15.20;5.47;;;;;;;;;;5074142;28;20785;-67
2022/10/12 10:40:00;;;;;;;22.23;8.27;;;;;;;;;;5074797;28;20471;-67
2022/10/12 10:42:30;;;;;;;21.20;6.53;;;;;;;;;;5074491;28;20889;-67
2022/10/12 10:45:00;;;;;;;73.57;13.60;;;;;;;;;;5074064;28;20426;-67
2022/10/12 10:47:28;;;;;;;29.93;7.23;;;;;;;;;;5074058;28;20947;-67
2022/10/12 10:49:58;;;;;;;16.33;5.33;;;;;;;;;;5073185;28;20739;-67
2022/10/12 10:52:26;;;;;;;108.70;17.00;;;;;;;;;;5088421;28;20501;-67
2022/10/12 10:55:06;;;;;;;146.73;22.40;;;;;;;;;;5094229;28;20476;-67
2022/10/12 10:57:41;;;;;;;27.60;7.40;;;;;;;;;;5094906;28;20428;-67
2022/10/12 11:00:13;;;;;;;37.77;10.90;;;;;;;;;;5094821;28;20423;-66
2022/10/12 11:02:43;;;;;;;105.13;17.90;;;;;;;;;;5094456;28;20450;-67
2022/10/12 11:05:13;;;;;;;17.90;7.90;;;;;;;;;;5094414;28;20433;-67
2022/10/12 11:07:43;;;;;;;20.93;7.67;;;;;;;;;;5094203;28;20443;-67
2022/10/12 11:10:16;;;;;;;16.30;6.33;;;;;;;;;;5093786;28;20444;-67
2022/10/12 11:12:48;;;;;;;21.00;5.80;;;;;;;;;;5093882;28;20428;-68
2022/10/12 11:15:19;;;;;;;7.17;3.80;;;;;;;;;;5094252;28;20564;-67
2022/10/12 11:17:50;;;;;;;6.93;3.47;;;;;;;;;;5093718;28;20916;-68
2022/10/12 11:20:25;;;;;;;11.10;4.33;;;;;;;;;;5094567;28;20435;-67
2022/10/12 11:22:54;;;;;;;8.60;4.63;;;;;;;;;;5093955;28;20454;-67
2022/10/12 11:25:22;;;;;;;11.97;3.87;;;;;;;;;;5093748;28;20474;-67
2022/10/12 11:27:50;;;;;;;8.77;4.33;;;;;;;;;;5093733;28;20437;-67
2022/10/12 11:30:20;;;;;;;10.20;3.60;;;;;;;;;;5093613;28;20456;-68
2022/10/12 11:32:50;;;;;;;83.07;12.30;;;;;;;;;;5092980;28;20956;-67
2022/10/12 11:35:18;;;;;;;51.37;9.77;;;;;;;;;;5093508;28;20480;-67
2022/10/12 11:37:48;;;;;;;9.67;4.47;;;;;;;;;;5093724;28;20444;-68
2022/10/12 11:40:18;;;;;;;14.83;7.53;;;;;;;;;;5093657;28;20799;-68
2022/10/12 11:42:47;;;;;;;23.80;8.00;;;;;;;;;;5093805;28;20442;-67
2022/10/12 11:45:19;;;;;;;12.70;3.93;;;;;;;;;;5093673;28;20436;-67
2022/10/12 11:47:49;;;;;;;63.20;35.47;;;;;;;;;;5094580;28;20440;-67
2022/10/12 11:50:21;;;;;;;9.57;4.70;;;;;;;;;;5093324;28;20429;-67
2022/10/12 11:52:50;;;;;;;36.67;20.10;;;;;;;;;;5093187;28;20448;-67
2022/10/12 11:55:42;;;;;;;9.00;5.00;;;;;;;;;;5093604;28;20496;-67
2022/10/12 11:58:13;;;;;;;18.33;3.70;;;;;;;;;;5093856;28;20434;-69
2022/10/12 12:00:43;;;;;;;13.57;3.87;;;;;;;;;;5093097;28;20441;-68
2022/10/12 12:03:16;;;;;;;7.93;4.67;;;;;;;;;;5093794;28;20464;-67
2022/10/12 12:05:44;;;;;;;8.07;4.27;;;;;;;;;;5093993;28;20444;-68
2022/10/12 12:08:21;;;;;;;7.63;3.63;;;;;;;;;;5093455;28;20440;-67
2022/10/12 12:10:53;;;;;;;9.90;3.50;;;;;;;;;;5093538;28;20437;-68
2022/10/12 12:13:22;;;;;;;7.53;3.10;;;;;;;;;;5093459;28;20452;-67
2022/10/12 12:16:07;;;;;;;19.40;4.43;;;;;;;;;;5093355;28;20446;-68
2022/10/12 12:18:55;;;;;;;19.83;3.57;;;;;;;;;;5083548;28;20459;-68
2022/10/12 12:21:23;;;;;;;7.50;3.20;;;;;;;;;;5093325;28;20444;-68
2022/10/12 12:23:52;;;;;;;9.43;3.20;;;;;;;;;;5093010;28;20466;-68
2022/10/12 12:26:21;;;;;;;6.30;3.17;;;;;;;;;;5093486;28;20435;-67
2022/10/12 12:28:49;;;;;;;22.53;5.23;;;;;;;;;;5093367;28;20853;-68
2022/10/12 12:31:17;;;;;;;11.63;3.53;;;;;;;;;;5093067;28;20445;-67
2022/10/12 12:33:48;;;;;;;7.37;3.70;;;;;;;;;;5092773;28;20484;-67
2022/10/12 12:36:25;;;;;;;18.80;3.67;;;;;;;;;;5093331;28;20531;-67
2022/10/12 12:38:52;;;;;;;6.67;3.70;;;;;;;;;;5093494;28;20438;-68
2022/10/12 12:41:20;;;;;;;10.37;5.33;;;;;;;;;;5092779;28;20443;-67
2022/10/12 12:43:58;;;;;;;7.63;3.87;;;;;;;;;;5095386;28;20976;-67
2022/10/12 12:46:26;;;;;;;8.53;4.37;;;;;;;;;;5096946;28;20516;-67
2022/10/12 12:48:59;;;;;;;18.17;6.93;;;;;;;;;;5097010;28;20793;-67
2022/10/12 12:51:27;;;;;;;11.23;4.53;;;;;;;;;;5096763;28;20448;-68
2022/10/12 12:53:57;;;;;;;9.73;3.80;;;;;;;;;;5096743;28;20514;-68
2022/10/12 12:56:27;;;;;;;16.23;5.03;;;;;;;;;;5096427;28;20451;-68
2022/10/12 12:59:03;;;;;;;11.10;4.10;;;;;;;;;;5096485;28;20444;-68
2022/10/12 13:01:44;;;;;;;10.10;3.93;;;;;;;;;;5096763;28;20436;-68
2022/10/12 13:04:23;;;;;;;4.20;2.73;;;;;;;;;;5096939;28;20437;-68
2022/10/12 13:07:07;;;;;;;7.00;2.90;;;;;;;;;;5096194;28;20456;-68
2022/10/12 13:09:44;;;;;;;7.60;3.07;;;;;;;;;;5096669;28;20430;-67
2022/10/12 13:12:17;;;;;;;7.40;3.50;;;;;;;;;;5096805;28;20429;-67
2022/10/12 13:15:00;;;;;;;8.77;3.40;;;;;;;;;;5096062;28;20472;-68
2022/10/12 13:17:37;;;;;;;7.93;2.50;;;;;;;;;;5096392;28;20441;-68
2022/10/12 13:20:12;;;;;;;6.40;2.80;;;;;;;;;;5096029;28;20434;-68
2022/10/12 13:22:40;;;;;;;8.73;2.83;;;;;;;;;;5096289;28;20439;-69
2022/10/12 13:25:08;;;;;;;4.63;2.50;;;;;;;;;;5096412;28;20477;-67
2022/10/12 13:27:39;;;;;;;9.63;2.90;;;;;;;;;;5095687;28;20521;-68
2022/10/12 13:30:13;;;;;;;10.07;2.83;;;;;;;;;;5096503;28;20430;-68
2022/10/12 13:32:43;;;;;;;8.07;2.80;;;;;;;;;;5096106;28;20438;-68
2022/10/12 13:35:14;;;;;;;10.47;3.07;;;;;;;;;;5096052;28;20474;-68
2022/10/12 13:37:41;;;;;;;10.03;3.57;;;;;;;;;;5095853;28;20443;-68
2022/10/12 13:40:23;;;;;;;7.90;3.63;;;;;;;;;;5095579;28;20537;-67
2022/10/12 13:42:50;;;;;;;25.87;3.97;;;;;;;;;;5095501;28;20450;-68
2022/10/12 13:45:18;;;;;;;8.70;3.53;;;;;;;;;;5096449;28;20542;-68
2022/10/12 13:47:45;;;;;;;10.53;3.67;;;;;;;;;;5095643;28;20450;-68
2022/10/12 13:50:18;;;;;;;22.83;4.27;;;;;;;;;;5095724;28;20521;-68
2022/10/12 13:52:52;;;;;;;8.87;2.73;;;;;;;;;;5095345;28;20429;-68
2022/10/12 13:55:25;;;;;;;25.50;5.07;;;;;;;;;;5094297;28;20473;-68
2022/10/12 13:57:52;;;;;;;9.00;3.50;;;;;;;;;;5095985;28;20465;-68
2022/10/12 14:00:20;;;;;;;13.00;3.40;;;;;;;;;;5095183;28;20456;-68
2022/10/12 14:02:54;;;;;;;9.93;3.80;;;;;;;;;;5095073;28;20442;-68
2022/10/12 14:05:25;;;;;;;12.43;3.40;;;;;;;;;;5095080;28;20444;-68
2022/10/12 14:07:53;;;;;;;7.43;2.60;;;;;;;;;;5095253;28;20446;-68
2022/10/12 14:10:24;;;;;;;8.40;3.27;;;;;;;;;;5094897;28;20907;-68
2022/10/12 14:12:52;;;;;;;4.30;2.57;;;;;;;;;;5095218;28;20529;-68
2022/10/12 14:15:20;;;;;;;7.03;3.03;;;;;;;;;;5095204;28;20490;-68
2022/10/12 14:17:49;;;;;;;5.60;3.10;;;;;;;;;;5095153;28;20800;-68
2022/10/12 14:20:18;;;;;;;7.60;3.77;;;;;;;;;;5095131;28;20438;-68
2022/10/12 14:22:49;;;;;;;5.83;3.10;;;;;;;;;;5095385;28;20440;-67
2022/10/12 14:25:18;;;;;;;9.07;3.40;;;;;;;;;;5094541;28;20467;-68
2022/10/12 14:27:45;;;;;;;8.53;3.80;;;;;;;;;;5094605;28;20446;-68
2022/10/12 14:30:18;;;;;;;12.07;4.40;;;;;;;;;;5094807;28;20454;-68
2022/10/12 14:32:45;;;;;;;8.07;3.60;;;;;;;;;;5095087;28;20828;-68
2022/10/12 14:35:24;;;;;;;5.20;3.77;;;;;;;;;;5094240;28;20479;-68